sensor_id;sensor_type;location;lat;lon;timestamp;temperature;humidity
35563;DHT22;21665;40.108;18.302;2024-02-23T00:01:40;8.70;99.90
35563;DHT22;21665;40.108;18.302;2024-02-23T00:04:07;8.90;99.90
35563;DHT22;21665;40.108;18.302;2024-02-23T00:06:35;8.80;99.90
35563;DHT22;21665;40.108;18.302;2024-02-23T00:09:03;8.80;99.90
35563;DHT22;21665;40.108;18.302;2024-02-23T00:11:30;8.90;99.90
35563;DHT22;21665;40.108;18.302;2024-02-23T00:14:02;8.90;99.90
35563;DHT22;21665;40.108;18.302;2024-02-23T00:16:29;8.90;99.90
35563;DHT22;21665;40.108;18.302;2024-02-23T00:18:55;8.90;99.90
35563;DHT22;21665;40.108;18.302;2024-02-23T00:21:22;8.90;99.90
35563;DHT22;21665;40.108;18.302;2024-02-23T00:23:49;8.90;99.90
35563;DHT22;21665;40.108;18.302;2024-02-23T00:26:18;8.90;99.90
35563;DHT22;21665;40.108;18.302;2024-02-23T00:28:45;8.90;99.90
35563;DHT22;21665;40.108;18.302;2024-02-23T00:31:11;8.80;99.90
35563;DHT22;21665;40.108;18.302;2024-02-23T00:33:41;8.80;99.90
35563;DHT22;21665;40.108;18.302;2024-02-23T00:36:08;8.80;99.90
35563;DHT22;21665;40.108;18.302;2024-02-23T00:38:35;8.80;99.90
35563;DHT22;21665;40.108;18.302;2024-02-23T00:41:01;8.70;99.90
35563;DHT22;21665;40.108;18.302;2024-02-23T00:43:27;8.70;99.90
35563;DHT22;21665;40.108;18.302;2024-02-23T00:45:57;8.70;99.90
35563;DHT22;21665;40.108;18.302;2024-02-23T00:48:23;8.60;99.90
35563;DHT22;21665;40.108;18.302;2024-02-23T00:50:55;8.70;99.90
35563;DHT22;21665;40.108;18.302;2024-02-23T00:53:22;8.70;99.90
35563;DHT22;21665;40.108;18.302;2024-02-23T00:55:48;8.70;99.90
35563;DHT22;21665;40.108;18.302;2024-02-23T00:58:14;8.80;99.90
35563;DHT22;21665;40.108;18.302;2024-02-23T01:00:42;8.70;99.90
35563;DHT22;21665;40.108;18.302;2024-02-23T01:03:08;8.70;99.90
35563;DHT22;21665;40.108;18.302;2024-02-23T01:05:35;8.70;99.90
35563;DHT22;21665;40.108;18.302;2024-02-23T01:08:02;8.60;99.90
35563;DHT22;21665;40.108;18.302;2024-02-23T01:10:28;8.60;99.90
35563;DHT22;21665;40.108;18.302;2024-02-23T01:12:54;8.60;99.90
35563;DHT22;21665;40.108;18.302;2024-02-23T01:15:20;8.60;99.90
35563;DHT22;21665;40.108;18.302;2024-02-23T01:17:47;8.80;99.90
35563;DHT22;21665;40.108;18.302;2024-02-23T01:20:14;8.80;99.90
35563;DHT22;21665;40.108;18.302;2024-02-23T01:22:40;9.00;99.90
35563;DHT22;21665;40.108;18.302;2024-02-23T01:25:07;9.10;99.90
35563;DHT22;21665;40.108;18.302;2024-02-23T01:27:34;9.10;99.90
35563;DHT22;21665;40.108;18.302;2024-02-23T01:30:01;9.20;99.90
35563;DHT22;21665;40.108;18.302;2024-02-23T01:32:30;9.30;99.90
35563;DHT22;21665;40.108;18.302;2024-02-23T01:35:00;9.40;99.90
35563;DHT22;21665;40.108;18.302;2024-02-23T01:37:26;9.40;99.90
35563;DHT22;21665;40.108;18.302;2024-02-23T01:39:52;9.40;99.90
35563;DHT22;21665;40.108;18.302;2024-02-23T01:42:18;9.40;99.90
35563;DHT22;21665;40.108;18.302;2024-02-23T01:44:45;9.40;99.90
35563;DHT22;21665;40.108;18.302;2024-02-23T01:47:12;9.50;99.90
35563;DHT22;21665;40.108;18.302;2024-02-23T01:49:38;9.50;99.90
35563;DHT22;21665;40.108;18.302;2024-02-23T01:52:05;9.60;99.90
35563;DHT22;21665;40.108;18.302;2024-02-23T01:54:31;9.50;99.90
35563;DHT22;21665;40.108;18.302;2024-02-23T01:57:03;9.50;99.90
35563;DHT22;21665;40.108;18.302;2024-02-23T01:59:30;9.40;99.90
35563;DHT22;21665;40.108;18.302;2024-02-23T02:01:56;9.40;99.90
35563;DHT22;21665;40.108;18.302;2024-02-23T02:04:23;9.40;99.90
35563;DHT22;21665;40.108;18.302;2024-02-23T02:06:49;9.40;99.90
35563;DHT22;21665;40.108;18.302;2024-02-23T02:09:16;9.40;99.90
35563;DHT22;21665;40.108;18.302;2024-02-23T02:11:50;9.40;99.90
35563;DHT22;21665;40.108;18.302;2024-02-23T02:14:17;9.30;99.90
35563;DHT22;21665;40.108;18.302;2024-02-23T02:16:44;9.30;99.90
35563;DHT22;21665;40.108;18.302;2024-02-23T02:19:11;9.30;99.90
35563;DHT22;21665;40.108;18.302;2024-02-23T02:21:38;9.30;99.90
35563;DHT22;21665;40.108;18.302;2024-02-23T02:24:06;9.30;99.90
35563;DHT22;21665;40.108;18.302;2024-02-23T02:26:32;9.40;99.90
35563;DHT22;21665;40.108;18.302;2024-02-23T02:28:59;9.30;99.90
35563;DHT22;21665;40.108;18.302;2024-02-23T02:31:25;9.30;99.90
35563;DHT22;21665;40.108;18.302;2024-02-23T02:33:52;9.40;99.90
35563;DHT22;21665;40.108;18.302;2024-02-23T02:36:21;9.40;99.90
35563;DHT22;21665;40.108;18.302;2024-02-23T02:38:47;9.40;99.90
35563;DHT22;21665;40.108;18.302;2024-02-23T02:41:16;9.50;99.90
35563;DHT22;21665;40.108;18.302;2024-02-23T02:43:43;9.60;99.90
35563;DHT22;21665;40.108;18.302;2024-02-23T02:46:09;9.60;99.90
35563;DHT22;21665;40.108;18.302;2024-02-23T02:48:36;9.60;99.90
35563;DHT22;21665;40.108;18.302;2024-02-23T02:51:03;9.60;99.90
35563;DHT22;21665;40.108;18.302;2024-02-23T02:53:29;9.70;99.90
35563;DHT22;21665;40.108;18.302;2024-02-23T02:55:56;9.60;99.90
35563;DHT22;21665;40.108;18.302;2024-02-23T02:58:22;9.60;99.90
35563;DHT22;21665;40.108;18.302;2024-02-23T03:00:49;9.60;99.90
35563;DHT22;21665;40.108;18.302;2024-02-23T03:03:15;9.50;99.90
35563;DHT22;21665;40.108;18.302;2024-02-23T03:05:41;9.50;99.90
35563;DHT22;21665;40.108;18.302;2024-02-23T03:08:08;9.50;99.90
35563;DHT22;21665;40.108;18.302;2024-02-23T03:10:34;9.50;99.90
35563;DHT22;21665;40.108;18.302;2024-02-23T03:13:01;9.50;99.90
35563;DHT22;21665;40.108;18.302;2024-02-23T03:15:27;9.50;99.90
35563;DHT22;21665;40.108;18.302;2024-02-23T03:17:53;9.60;99.90
35563;DHT22;21665;40.108;18.302;2024-02-23T03:20:21;9.60;99.90
35563;DHT22;21665;40.108;18.302;2024-02-23T03:22:48;9.60;99.90
35563;DHT22;21665;40.108;18.302;2024-02-23T03:25:14;9.60;99.90
35563;DHT22;21665;40.108;18.302;2024-02-23T03:27:44;9.70;99.90
35563;DHT22;21665;40.108;18.302;2024-02-23T03:30:10;9.70;99.90
35563;DHT22;21665;40.108;18.302;2024-02-23T03:32:37;9.80;99.90
35563;DHT22;21665;40.108;18.302;2024-02-23T03:35:06;9.80;99.90
35563;DHT22;21665;40.108;18.302;2024-02-23T03:37:34;9.90;99.90
35563;DHT22;21665;40.108;18.302;2024-02-23T03:40:05;10.00;99.90
35563;DHT22;21665;40.108;18.302;2024-02-23T03:42:32;10.10;99.90
35563;DHT22;21665;40.108;18.302;2024-02-23T03:44:59;10.10;99.90
35563;DHT22;21665;40.108;18.302;2024-02-23T03:47:25;10.30;99.90
35563;DHT22;21665;40.108;18.302;2024-02-23T03:49:52;10.30;99.90
35563;DHT22;21665;40.108;18.302;2024-02-23T03:52:18;10.30;99.90
35563;DHT22;21665;40.108;18.302;2024-02-23T03:54:44;10.40;99.90
35563;DHT22;21665;40.108;18.302;2024-02-23T03:57:11;10.40;99.90
35563;DHT22;21665;40.108;18.302;2024-02-23T03:59:37;10.40;99.90
35563;DHT22;21665;40.108;18.302;2024-02-23T04:02:04;10.40;99.90
35563;DHT22;21665;40.108;18.302;2024-02-23T04:04:30;10.40;99.90
35563;DHT22;21665;40.108;18.302;2024-02-23T04:06:57;10.40;99.90
35563;DHT22;21665;40.108;18.302;2024-02-23T04:09:23;10.40;99.90
35563;DHT22;21665;40.108;18.302;2024-02-23T04:11:50;10.30;99.90
35563;DHT22;21665;40.108;18.302;2024-02-23T04:14:17;10.40;99.90
35563;DHT22;21665;40.108;18.302;2024-02-23T04:16:43;10.30;99.90
35563;DHT22;21665;40.108;18.302;2024-02-23T04:19:09;10.30;99.90
35563;DHT22;21665;40.108;18.302;2024-02-23T04:21:36;10.20;99.90
35563;DHT22;21665;40.108;18.302;2024-02-23T04:24:02;10.30;99.90
35563;DHT22;21665;40.108;18.302;2024-02-23T04:26:29;10.30;99.90
35563;DHT22;21665;40.108;18.302;2024-02-23T04:28:55;10.30;99.90
35563;DHT22;21665;40.108;18.302;2024-02-23T04:31:22;10.40;99.90
35563;DHT22;21665;40.108;18.302;2024-02-23T04:33:48;10.40;99.90
35563;DHT22;21665;40.108;18.302;2024-02-23T04:36:14;10.50;99.90
35563;DHT22;21665;40.108;18.302;2024-02-23T04:38:45;10.50;99.90
35563;DHT22;21665;40.108;18.302;2024-02-23T04:41:11;10.60;99.90
35563;DHT22;21665;40.108;18.302;2024-02-23T04:43:37;10.60;99.90
35563;DHT22;21665;40.108;18.302;2024-02-23T04:46:04;10.60;99.90
35563;DHT22;21665;40.108;18.302;2024-02-23T04:48:31;10.60;99.90
35563;DHT22;21665;40.108;18.302;2024-02-23T04:50:58;10.60;99.90
35563;DHT22;21665;40.108;18.302;2024-02-23T04:53:24;10.60;99.90
35563;DHT22;21665;40.108;18.302;2024-02-23T04:55:51;10.60;99.90
35563;DHT22;21665;40.108;18.302;2024-02-23T04:58:17;10.60;99.90
35563;DHT22;21665;40.108;18.302;2024-02-23T05:00:44;10.60;99.90
35563;DHT22;21665;40.108;18.302;2024-02-23T05:03:10;10.60;99.90
35563;DHT22;21665;40.108;18.302;2024-02-23T05:05:37;10.70;99.90
35563;DHT22;21665;40.108;18.302;2024-02-23T05:08:06;10.70;99.90
35563;DHT22;21665;40.108;18.302;2024-02-23T05:10:32;10.70;99.90
35563;DHT22;21665;40.108;18.302;2024-02-23T05:12:59;10.70;99.90
35563;DHT22;21665;40.108;18.302;2024-02-23T05:15:25;10.70;99.90
35563;DHT22;21665;40.108;18.302;2024-02-23T05:17:52;10.80;99.90
35563;DHT22;21665;40.108;18.302;2024-02-23T05:20:18;10.80;99.90
35563;DHT22;21665;40.108;18.302;2024-02-23T05:22:45;10.80;99.90
35563;DHT22;21665;40.108;18.302;2024-02-23T05:25:11;10.80;99.90
35563;DHT22;21665;40.108;18.302;2024-02-23T05:27:37;10.80;99.90
35563;DHT22;21665;40.108;18.302;2024-02-23T05:30:05;10.80;99.90
35563;DHT22;21665;40.108;18.302;2024-02-23T05:32:32;10.90;99.90
35563;DHT22;21665;40.108;18.302;2024-02-23T05:34:59;10.90;99.90
35563;DHT22;21665;40.108;18.302;2024-02-23T05:37:25;10.80;99.90
35563;DHT22;21665;40.108;18.302;2024-02-23T05:39:53;10.90;99.90
35563;DHT22;21665;40.108;18.302;2024-02-23T05:42:19;10.90;99.90
35563;DHT22;21665;40.108;18.302;2024-02-23T05:44:46;10.90;99.90
35563;DHT22;21665;40.108;18.302;2024-02-23T05:47:15;10.90;99.90
35563;DHT22;21665;40.108;18.302;2024-02-23T05:49:41;10.90;99.90
35563;DHT22;21665;40.108;18.302;2024-02-23T05:52:08;10.90;99.90
35563;DHT22;21665;40.108;18.302;2024-02-23T05:54:35;11.00;99.90
35563;DHT22;21665;40.108;18.302;2024-02-23T05:57:01;11.00;99.90
35563;DHT22;21665;40.108;18.302;2024-02-23T05:59:29;11.00;99.90
35563;DHT22;21665;40.108;18.302;2024-02-23T06:02:01;11.00;99.90
35563;DHT22;21665;40.108;18.302;2024-02-23T06:04:29;11.10;99.90
35563;DHT22;21665;40.108;18.302;2024-02-23T06:06:56;11.10;99.90
35563;DHT22;21665;40.108;18.302;2024-02-23T06:09:22;11.20;99.90
35563;DHT22;21665;40.108;18.302;2024-02-23T06:11:49;11.30;99.90
35563;DHT22;21665;40.108;18.302;2024-02-23T06:14:15;11.40;99.90
35563;DHT22;21665;40.108;18.302;2024-02-23T06:16:44;11.50;99.90
35563;DHT22;21665;40.108;18.302;2024-02-23T06:19:11;11.60;99.90
35563;DHT22;21665;40.108;18.302;2024-02-23T06:21:38;11.70;99.90
35563;DHT22;21665;40.108;18.302;2024-02-23T06:24:04;11.90;99.90
35563;DHT22;21665;40.108;18.302;2024-02-23T06:26:31;12.50;99.90
35563;DHT22;21665;40.108;18.302;2024-02-23T06:28:58;12.90;99.90
35563;DHT22;21665;40.108;18.302;2024-02-23T06:31:24;13.50;99.90
35563;DHT22;21665;40.108;18.302;2024-02-23T06:33:51;13.90;99.90
35563;DHT22;21665;40.108;18.302;2024-02-23T06:36:18;14.10;99.90
35563;DHT22;21665;40.108;18.302;2024-02-23T06:38:45;14.10;99.90
35563;DHT22;21665;40.108;18.302;2024-02-23T06:41:15;14.10;99.90
35563;DHT22;21665;40.108;18.302;2024-02-23T06:43:41;14.10;99.90
35563;DHT22;21665;40.108;18.302;2024-02-23T06:46:09;14.10;99.90
35563;DHT22;21665;40.108;18.302;2024-02-23T06:48:39;14.10;99.90
35563;DHT22;21665;40.108;18.302;2024-02-23T06:51:08;14.40;99.90
35563;DHT22;21665;40.108;18.302;2024-02-23T06:53:36;14.40;99.90
35563;DHT22;21665;40.108;18.302;2024-02-23T06:56:02;14.60;99.90
35563;DHT22;21665;40.108;18.302;2024-02-23T06:58:29;14.70;99.90
35563;DHT22;21665;40.108;18.302;2024-02-23T07:00:55;14.60;99.90
35563;DHT22;21665;40.108;18.302;2024-02-23T07:03:24;14.40;99.90
35563;DHT22;21665;40.108;18.302;2024-02-23T07:05:51;14.30;99.90
35563;DHT22;21665;40.108;18.302;2024-02-23T07:08:18;14.30;99.90
35563;DHT22;21665;40.108;18.302;2024-02-23T07:10:44;14.20;99.90
35563;DHT22;21665;40.108;18.302;2024-02-23T07:13:14;14.10;99.90
35563;DHT22;21665;40.108;18.302;2024-02-23T07:15:44;14.00;99.90
35563;DHT22;21665;40.108;18.302;2024-02-23T07:18:10;14.10;99.90
35563;DHT22;21665;40.108;18.302;2024-02-23T07:20:37;14.10;99.90
35563;DHT22;21665;40.108;18.302;2024-02-23T07:23:04;14.20;99.90
35563;DHT22;21665;40.108;18.302;2024-02-23T07:25:31;14.30;99.90
35563;DHT22;21665;40.108;18.302;2024-02-23T07:27:57;14.30;99.90
35563;DHT22;21665;40.108;18.302;2024-02-23T07:30:25;14.20;99.90
35563;DHT22;21665;40.108;18.302;2024-02-23T07:32:52;14.20;99.90
35563;DHT22;21665;40.108;18.302;2024-02-23T07:35:19;14.20;99.90
35563;DHT22;21665;40.108;18.302;2024-02-23T07:37:45;14.20;99.90
35563;DHT22;21665;40.108;18.302;2024-02-23T07:40:12;14.10;99.90
35563;DHT22;21665;40.108;18.302;2024-02-23T07:42:39;14.10;99.90
35563;DHT22;21665;40.108;18.302;2024-02-23T07:45:07;14.20;99.90
35563;DHT22;21665;40.108;18.302;2024-02-23T07:47:35;14.30;99.90
35563;DHT22;21665;40.108;18.302;2024-02-23T07:50:01;14.30;99.90
35563;DHT22;21665;40.108;18.302;2024-02-23T07:52:28;14.40;99.90
35563;DHT22;21665;40.108;18.302;2024-02-23T07:54:54;14.50;99.90
35563;DHT22;21665;40.108;18.302;2024-02-23T07:57:21;14.60;99.90
35563;DHT22;21665;40.108;18.302;2024-02-23T07:59:51;14.50;99.90
35563;DHT22;21665;40.108;18.302;2024-02-23T08:02:17;14.60;99.90
35563;DHT22;21665;40.108;18.302;2024-02-23T08:04:46;14.50;99.90
35563;DHT22;21665;40.108;18.302;2024-02-23T08:07:14;14.60;99.90
35563;DHT22;21665;40.108;18.302;2024-02-23T08:09:41;14.70;99.90
35563;DHT22;21665;40.108;18.302;2024-02-23T08:12:08;14.70;99.90
35563;DHT22;21665;40.108;18.302;2024-02-23T08:14:34;14.70;99.90
35563;DHT22;21665;40.108;18.302;2024-02-23T08:17:01;14.80;99.90
35563;DHT22;21665;40.108;18.302;2024-02-23T08:19:27;14.70;99.90
35563;DHT22;21665;40.108;18.302;2024-02-23T08:21:54;14.70;99.90
35563;DHT22;21665;40.108;18.302;2024-02-23T08:24:20;14.70;99.90
35563;DHT22;21665;40.108;18.302;2024-02-23T08:26:47;14.80;99.90
35563;DHT22;21665;40.108;18.302;2024-02-23T08:29:14;14.80;99.90
35563;DHT22;21665;40.108;18.302;2024-02-23T08:31:41;14.90;99.90
35563;DHT22;21665;40.108;18.302;2024-02-23T08:34:07;15.10;99.90
35563;DHT22;21665;40.108;18.302;2024-02-23T08:36:33;15.40;99.90
35563;DHT22;21665;40.108;18.302;2024-02-23T08:39:00;15.60;99.90
35563;DHT22;21665;40.108;18.302;2024-02-23T08:41:27;16.10;99.90
35563;DHT22;21665;40.108;18.302;2024-02-23T08:43:57;16.40;99.90
35563;DHT22;21665;40.108;18.302;2024-02-23T08:46:23;16.50;99.90
35563;DHT22;21665;40.108;18.302;2024-02-23T08:48:50;16.60;99.90
35563;DHT22;21665;40.108;18.302;2024-02-23T08:51:16;16.50;99.90
35563;DHT22;21665;40.108;18.302;2024-02-23T08:53:43;16.20;99.90
35563;DHT22;21665;40.108;18.302;2024-02-23T08:56:09;16.50;99.90
35563;DHT22;21665;40.108;18.302;2024-02-23T08:58:37;16.90;99.90
35563;DHT22;21665;40.108;18.302;2024-02-23T09:01:04;17.20;99.90
35563;DHT22;21665;40.108;18.302;2024-02-23T09:03:34;17.20;99.90
35563;DHT22;21665;40.108;18.302;2024-02-23T09:06:01;17.00;99.90
35563;DHT22;21665;40.108;18.302;2024-02-23T09:08:29;17.20;99.90
35563;DHT22;21665;40.108;18.302;2024-02-23T09:10:56;17.10;99.90
35563;DHT22;21665;40.108;18.302;2024-02-23T09:13:26;16.90;99.90
35563;DHT22;21665;40.108;18.302;2024-02-23T09:15:54;17.00;99.90
35563;DHT22;21665;40.108;18.302;2024-02-23T09:18:23;16.80;99.90
35563;DHT22;21665;40.108;18.302;2024-02-23T09:20:50;16.80;99.90
35563;DHT22;21665;40.108;18.302;2024-02-23T09:23:16;16.80;99.90
35563;DHT22;21665;40.108;18.302;2024-02-23T09:25:43;16.90;99.90
35563;DHT22;21665;40.108;18.302;2024-02-23T09:28:10;16.90;99.90
35563;DHT22;21665;40.108;18.302;2024-02-23T09:30:37;16.90;99.90
35563;DHT22;21665;40.108;18.302;2024-02-23T09:33:05;17.10;99.90
35563;DHT22;21665;40.108;18.302;2024-02-23T09:35:32;17.00;99.90
35563;DHT22;21665;40.108;18.302;2024-02-23T09:37:58;16.80;99.90
35563;DHT22;21665;40.108;18.302;2024-02-23T09:40:25;16.80;99.90
35563;DHT22;21665;40.108;18.302;2024-02-23T09:43:12;16.90;99.90
35563;DHT22;21665;40.108;18.302;2024-02-23T09:45:38;17.10;99.90
35563;DHT22;21665;40.108;18.302;2024-02-23T09:48:07;17.10;99.90
35563;DHT22;21665;40.108;18.302;2024-02-23T09:50:38;17.00;99.90
35563;DHT22;21665;40.108;18.302;2024-02-23T09:53:07;17.20;99.90
35563;DHT22;21665;40.108;18.302;2024-02-23T09:55:37;17.20;99.90
35563;DHT22;21665;40.108;18.302;2024-02-23T09:58:04;17.10;99.90
35563;DHT22;21665;40.108;18.302;2024-02-23T10:00:34;17.10;99.90
35563;DHT22;21665;40.108;18.302;2024-02-23T10:03:04;17.10;99.90
35563;DHT22;21665;40.108;18.302;2024-02-23T10:05:31;16.90;99.90
35563;DHT22;21665;40.108;18.302;2024-02-23T10:07:58;17.00;99.90
35563;DHT22;21665;40.108;18.302;2024-02-23T10:10:34;17.10;99.90
35563;DHT22;21665;40.108;18.302;2024-02-23T10:13:01;17.20;99.90
35563;DHT22;21665;40.108;18.302;2024-02-23T10:15:30;17.20;99.90
35563;DHT22;21665;40.108;18.302;2024-02-23T10:18:00;17.20;99.90
35563;DHT22;21665;40.108;18.302;2024-02-23T10:20:26;17.20;99.90
35563;DHT22;21665;40.108;18.302;2024-02-23T10:22:53;17.40;99.90
35563;DHT22;21665;40.108;18.302;2024-02-23T10:25:20;17.30;99.90
35563;DHT22;21665;40.108;18.302;2024-02-23T10:27:47;17.30;99.90
35563;DHT22;21665;40.108;18.302;2024-02-23T10:30:14;17.50;99.90
35563;DHT22;21665;40.108;18.302;2024-02-23T10:32:45;17.60;99.90
35563;DHT22;21665;40.108;18.302;2024-02-23T10:35:16;17.60;99.90
35563;DHT22;21665;40.108;18.302;2024-02-23T10:37:43;17.40;99.90
35563;DHT22;21665;40.108;18.302;2024-02-23T10:40:12;17.30;99.90
35563;DHT22;21665;40.108;18.302;2024-02-23T10:42:41;17.20;99.90
35563;DHT22;21665;40.108;18.302;2024-02-23T10:45:10;17.40;99.90
35563;DHT22;21665;40.108;18.302;2024-02-23T10:47:37;17.60;99.90
35563;DHT22;21665;40.108;18.302;2024-02-23T10:50:06;17.80;99.90
35563;DHT22;21665;40.108;18.302;2024-02-23T10:52:34;18.00;99.90
35563;DHT22;21665;40.108;18.302;2024-02-23T10:55:08;18.10;99.90
35563;DHT22;21665;40.108;18.302;2024-02-23T10:57:36;18.10;99.90
35563;DHT22;21665;40.108;18.302;2024-02-23T11:00:03;18.30;99.90
35563;DHT22;21665;40.108;18.302;2024-02-23T11:02:40;17.80;99.90
35563;DHT22;21665;40.108;18.302;2024-02-23T11:05:11;17.90;99.90
35563;DHT22;21665;40.108;18.302;2024-02-23T11:07:39;18.00;99.90
35563;DHT22;21665;40.108;18.302;2024-02-23T11:10:14;17.90;99.90
35563;DHT22;21665;40.108;18.302;2024-02-23T11:12:42;17.70;99.90
35563;DHT22;21665;40.108;18.302;2024-02-23T11:15:10;17.80;99.90
35563;DHT22;21665;40.108;18.302;2024-02-23T11:17:52;17.60;99.90
35563;DHT22;21665;40.108;18.302;2024-02-23T11:20:19;17.50;99.90
35563;DHT22;21665;40.108;18.302;2024-02-23T11:23:00;17.70;99.90
35563;DHT22;21665;40.108;18.302;2024-02-23T11:25:27;17.90;99.90
35563;DHT22;21665;40.108;18.302;2024-02-23T11:27:54;17.90;99.90
35563;DHT22;21665;40.108;18.302;2024-02-23T11:30:21;17.90;99.90
35563;DHT22;21665;40.108;18.302;2024-02-23T11:32:48;18.00;99.90
35563;DHT22;21665;40.108;18.302;2024-02-23T11:35:16;18.00;99.90
35563;DHT22;21665;40.108;18.302;2024-02-23T11:37:56;18.20;99.90
35563;DHT22;21665;40.108;18.302;2024-02-23T11:40:27;18.30;99.90
35563;DHT22;21665;40.108;18.302;2024-02-23T11:42:58;18.30;99.90
35563;DHT22;21665;40.108;18.302;2024-02-23T11:45:29;18.10;99.90
35563;DHT22;21665;40.108;18.302;2024-02-23T11:47:57;18.20;99.90
35563;DHT22;21665;40.108;18.302;2024-02-23T11:50:23;17.90;99.90
35563;DHT22;21665;40.108;18.302;2024-02-23T11:52:50;17.80;99.90
35563;DHT22;21665;40.108;18.302;2024-02-23T11:55:20;17.80;99.90
35563;DHT22;21665;40.108;18.302;2024-02-23T11:57:50;17.90;99.90
35563;DHT22;21665;40.108;18.302;2024-02-23T12:00:17;18.30;99.90
35563;DHT22;21665;40.108;18.302;2024-02-23T12:02:44;18.40;99.90
35563;DHT22;21665;40.108;18.302;2024-02-23T12:05:17;18.30;99.90
35563;DHT22;21665;40.108;18.302;2024-02-23T12:07:43;18.10;99.90
35563;DHT22;21665;40.108;18.302;2024-02-23T12:10:12;17.90;99.90
35563;DHT22;21665;40.108;18.302;2024-02-23T12:12:39;17.80;99.90
35563;DHT22;21665;40.108;18.302;2024-02-23T12:15:07;18.10;99.90
35563;DHT22;21665;40.108;18.302;2024-02-23T12:17:37;18.10;99.90
35563;DHT22;21665;40.108;18.302;2024-02-23T12:20:05;17.90;99.90
35563;DHT22;21665;40.108;18.302;2024-02-23T12:22:34;17.80;99.90
35563;DHT22;21665;40.108;18.302;2024-02-23T12:25:01;17.90;99.90
35563;DHT22;21665;40.108;18.302;2024-02-23T12:27:29;17.90;99.90
35563;DHT22;21665;40.108;18.302;2024-02-23T12:29:56;18.00;99.90
35563;DHT22;21665;40.108;18.302;2024-02-23T12:32:23;17.90;99.90
35563;DHT22;21665;40.108;18.302;2024-02-23T12:34:50;18.00;99.90
35563;DHT22;21665;40.108;18.302;2024-02-23T12:37:21;17.40;99.90
35563;DHT22;21665;40.108;18.302;2024-02-23T12:39:51;17.40;99.90
35563;DHT22;21665;40.108;18.302;2024-02-23T12:42:18;17.40;99.90
35563;DHT22;21665;40.108;18.302;2024-02-23T12:44:45;17.40;99.90
35563;DHT22;21665;40.108;18.302;2024-02-23T12:47:12;17.20;99.90
35563;DHT22;21665;40.108;18.302;2024-02-23T12:49:39;17.40;99.90
35563;DHT22;21665;40.108;18.302;2024-02-23T12:52:06;17.60;99.90
35563;DHT22;21665;40.108;18.302;2024-02-23T12:54:32;17.00;99.90
35563;DHT22;21665;40.108;18.302;2024-02-23T12:56:59;17.00;99.90
35563;DHT22;21665;40.108;18.302;2024-02-23T12:59:26;16.80;99.90
35563;DHT22;21665;40.108;18.302;2024-02-23T13:01:52;16.70;99.90
35563;DHT22;21665;40.108;18.302;2024-02-23T13:04:22;16.80;99.90
35563;DHT22;21665;40.108;18.302;2024-02-23T13:06:49;16.80;99.90
35563;DHT22;21665;40.108;18.302;2024-02-23T13:09:15;16.80;99.90
35563;DHT22;21665;40.108;18.302;2024-02-23T13:11:42;16.70;99.90
35563;DHT22;21665;40.108;18.302;2024-02-23T13:14:10;16.70;99.90
35563;DHT22;21665;40.108;18.302;2024-02-23T13:16:36;16.70;99.90
35563;DHT22;21665;40.108;18.302;2024-02-23T13:19:03;16.30;99.90
35563;DHT22;21665;40.108;18.302;2024-02-23T13:21:29;16.40;99.90
35563;DHT22;21665;40.108;18.302;2024-02-23T13:23:58;16.40;99.90
35563;DHT22;21665;40.108;18.302;2024-02-23T13:26:25;16.40;99.90
35563;DHT22;21665;40.108;18.302;2024-02-23T13:28:54;16.40;99.90
35563;DHT22;21665;40.108;18.302;2024-02-23T13:31:21;16.30;99.90
35563;DHT22;21665;40.108;18.302;2024-02-23T13:33:48;16.20;99.90
35563;DHT22;21665;40.108;18.302;2024-02-23T13:36:15;16.20;99.90
35563;DHT22;21665;40.108;18.302;2024-02-23T13:38:42;16.20;99.90
35563;DHT22;21665;40.108;18.302;2024-02-23T13:41:08;16.00;99.90
35563;DHT22;21665;40.108;18.302;2024-02-23T13:43:35;16.00;99.90
35563;DHT22;21665;40.108;18.302;2024-02-23T13:46:01;16.10;99.90
35563;DHT22;21665;40.108;18.302;2024-02-23T13:48:30;16.20;99.90
35563;DHT22;21665;40.108;18.302;2024-02-23T13:50:57;16.30;99.90
35563;DHT22;21665;40.108;18.302;2024-02-23T13:53:24;16.20;99.90
35563;DHT22;21665;40.108;18.302;2024-02-23T13:55:53;16.00;99.90
35563;DHT22;21665;40.108;18.302;2024-02-23T13:58:20;16.10;99.90
35563;DHT22;21665;40.108;18.302;2024-02-23T14:00:49;16.00;99.90
35563;DHT22;21665;40.108;18.302;2024-02-23T14:03:18;16.00;99.90
35563;DHT22;21665;40.108;18.302;2024-02-23T14:05:45;16.10;99.90
35563;DHT22;21665;40.108;18.302;2024-02-23T14:08:13;16.10;99.90
35563;DHT22;21665;40.108;18.302;2024-02-23T14:10:39;16.10;99.90
35563;DHT22;21665;40.108;18.302;2024-02-23T14:13:07;16.00;99.90
35563;DHT22;21665;40.108;18.302;2024-02-23T14:15:36;16.00;99.90
35563;DHT22;21665;40.108;18.302;2024-02-23T14:18:03;16.00;99.90
35563;DHT22;21665;40.108;18.302;2024-02-23T14:20:30;15.90;99.90
35563;DHT22;21665;40.108;18.302;2024-02-23T14:22:57;16.00;99.90
35563;DHT22;21665;40.108;18.302;2024-02-23T14:25:24;15.90;99.90
35563;DHT22;21665;40.108;18.302;2024-02-23T14:27:50;16.00;99.90
35563;DHT22;21665;40.108;18.302;2024-02-23T14:30:19;15.90;99.90
35563;DHT22;21665;40.108;18.302;2024-02-23T14:32:47;15.90;99.90
35563;DHT22;21665;40.108;18.302;2024-02-23T14:35:14;15.90;99.90
35563;DHT22;21665;40.108;18.302;2024-02-23T14:37:41;15.80;99.90
35563;DHT22;21665;40.108;18.302;2024-02-23T14:40:08;15.80;99.90
35563;DHT22;21665;40.108;18.302;2024-02-23T14:42:34;15.70;99.90
35563;DHT22;21665;40.108;18.302;2024-02-23T14:45:02;15.70;99.90
35563;DHT22;21665;40.108;18.302;2024-02-23T14:47:29;15.70;99.90
35563;DHT22;21665;40.108;18.302;2024-02-23T14:49:55;15.60;99.90
35563;DHT22;21665;40.108;18.302;2024-02-23T14:52:22;15.60;99.90
35563;DHT22;21665;40.108;18.302;2024-02-23T14:54:48;15.60;99.90
35563;DHT22;21665;40.108;18.302;2024-02-23T14:57:15;15.70;99.90
35563;DHT22;21665;40.108;18.302;2024-02-23T14:59:41;15.50;99.90
35563;DHT22;21665;40.108;18.302;2024-02-23T15:02:19;15.50;99.90
35563;DHT22;21665;40.108;18.302;2024-02-23T15:04:46;15.60;99.90
35563;DHT22;21665;40.108;18.302;2024-02-23T15:07:13;15.60;99.90
35563;DHT22;21665;40.108;18.302;2024-02-23T15:09:40;15.70;99.90
35563;DHT22;21665;40.108;18.302;2024-02-23T15:12:07;15.70;99.90
35563;DHT22;21665;40.108;18.302;2024-02-23T15:14:33;15.70;99.90
35563;DHT22;21665;40.108;18.302;2024-02-23T15:17:00;15.70;99.90
35563;DHT22;21665;40.108;18.302;2024-02-23T15:19:27;15.70;99.90
35563;DHT22;21665;40.108;18.302;2024-02-23T15:21:53;15.80;99.90